sensor_id;sensor_type;location;lat;lon;timestamp;temperature;humidity
3330;DHT22;1677;49.576;10.990;2022-08-25T00:00:32;21.90;99.90
3330;DHT22;1677;49.576;10.990;2022-08-25T00:02:57;21.70;99.90
3330;DHT22;1677;49.576;10.990;2022-08-25T00:05:25;21.60;99.90
3330;DHT22;1677;49.576;10.990;2022-08-25T00:07:52;21.50;99.90
3330;DHT22;1677;49.576;10.990;2022-08-25T00:10:17;21.40;99.90
3330;DHT22;1677;49.576;10.990;2022-08-25T00:12:43;21.20;99.90
3330;DHT22;1677;49.576;10.990;2022-08-25T00:15:09;21.00;99.90
3330;DHT22;1677;49.576;10.990;2022-08-25T00:17:35;21.00;99.90
3330;DHT22;1677;49.576;10.990;2022-08-25T00:20:00;21.00;99.90
3330;DHT22;1677;49.576;10.990;2022-08-25T00:22:26;21.40;99.90
3330;DHT22;1677;49.576;10.990;2022-08-25T00:24:52;22.30;99.90
3330;DHT22;1677;49.576;10.990;2022-08-25T00:27:17;23.00;99.90
3330;DHT22;1677;49.576;10.990;2022-08-25T00:29:43;23.70;99.90
3330;DHT22;1677;49.576;10.990;2022-08-25T00:32:08;24.00;99.90
3330;DHT22;1677;49.576;10.990;2022-08-25T00:34:36;24.00;99.90
3330;DHT22;1677;49.576;10.990;2022-08-25T00:37:04;23.80;99.90
3330;DHT22;1677;49.576;10.990;2022-08-25T00:39:32;23.60;99.90
3330;DHT22;1677;49.576;10.990;2022-08-25T00:41:58;23.30;99.90
3330;DHT22;1677;49.576;10.990;2022-08-25T00:44:26;22.70;99.90
3330;DHT22;1677;49.576;10.990;2022-08-25T00:46:55;22.30;99.90
3330;DHT22;1677;49.576;10.990;2022-08-25T00:51:50;21.50;99.90
3330;DHT22;1677;49.576;10.990;2022-08-25T00:54:22;21.10;99.90
3330;DHT22;1677;49.576;10.990;2022-08-25T00:56:49;20.90;99.90
3330;DHT22;1677;49.576;10.990;2022-08-25T00:59:18;20.70;99.90
3330;DHT22;1677;49.576;10.990;2022-08-25T01:01:44;20.60;99.90
3330;DHT22;1677;49.576;10.990;2022-08-25T01:04:10;20.40;99.90
3330;DHT22;1677;49.576;10.990;2022-08-25T01:06:38;20.30;99.90
3330;DHT22;1677;49.576;10.990;2022-08-25T01:09:05;20.30;99.90
3330;DHT22;1677;49.576;10.990;2022-08-25T01:11:32;20.30;99.90
3330;DHT22;1677;49.576;10.990;2022-08-25T01:13:59;20.20;99.90
3330;DHT22;1677;49.576;10.990;2022-08-25T01:16:28;20.60;99.90
3330;DHT22;1677;49.576;10.990;2022-08-25T01:18:57;21.50;99.90
3330;DHT22;1677;49.576;10.990;2022-08-25T01:21:26;22.50;99.90
3330;DHT22;1677;49.576;10.990;2022-08-25T01:23:54;22.80;99.90
3330;DHT22;1677;49.576;10.990;2022-08-25T01:26:27;23.10;99.90
3330;DHT22;1677;49.576;10.990;2022-08-25T01:28:53;22.90;99.90
3330;DHT22;1677;49.576;10.990;2022-08-25T01:31:38;23.00;99.90
3330;DHT22;1677;49.576;10.990;2022-08-25T01:34:05;22.90;99.90
3330;DHT22;1677;49.576;10.990;2022-08-25T01:36:31;22.40;99.90
3330;DHT22;1677;49.576;10.990;2022-08-25T01:38:57;21.80;99.90
3330;DHT22;1677;49.576;10.990;2022-08-25T01:43:52;21.10;99.90
3330;DHT22;1677;49.576;10.990;2022-08-25T01:46:17;20.70;99.90
3330;DHT22;1677;49.576;10.990;2022-08-25T01:48:43;20.60;99.90
3330;DHT22;1677;49.576;10.990;2022-08-25T01:51:08;20.40;99.90
3330;DHT22;1677;49.576;10.990;2022-08-25T01:53:34;20.30;99.90
3330;DHT22;1677;49.576;10.990;2022-08-25T01:56:07;20.20;99.90
3330;DHT22;1677;49.576;10.990;2022-08-25T01:58:35;20.00;99.90
3330;DHT22;1677;49.576;10.990;2022-08-25T02:01:07;19.90;99.90
3330;DHT22;1677;49.576;10.990;2022-08-25T02:03:39;19.80;99.90
3330;DHT22;1677;49.576;10.990;2022-08-25T02:06:05;19.70;99.90
3330;DHT22;1677;49.576;10.990;2022-08-25T02:08:32;19.90;99.90
3330;DHT22;1677;49.576;10.990;2022-08-25T02:10:57;20.70;99.90
3330;DHT22;1677;49.576;10.990;2022-08-25T02:13:23;21.30;99.90
3330;DHT22;1677;49.576;10.990;2022-08-25T02:15:52;21.90;99.90
3330;DHT22;1677;49.576;10.990;2022-08-25T02:18:19;22.40;99.90
3330;DHT22;1677;49.576;10.990;2022-08-25T02:20:45;22.50;99.90
3330;DHT22;1677;49.576;10.990;2022-08-25T02:23:11;22.60;99.90
3330;DHT22;1677;49.576;10.990;2022-08-25T02:25:38;22.40;99.90
3330;DHT22;1677;49.576;10.990;2022-08-25T02:28:05;22.00;99.90
3330;DHT22;1677;49.576;10.990;2022-08-25T02:30:31;21.50;99.90
3330;DHT22;1677;49.576;10.990;2022-08-25T02:32:56;21.00;99.90
3330;DHT22;1677;49.576;10.990;2022-08-25T02:35:25;20.70;99.90
3330;DHT22;1677;49.576;10.990;2022-08-25T02:37:51;20.40;99.90
3330;DHT22;1677;49.576;10.990;2022-08-25T02:40:18;20.10;99.90
3330;DHT22;1677;49.576;10.990;2022-08-25T02:42:46;20.10;99.90
3330;DHT22;1677;49.576;10.990;2022-08-25T02:45:11;20.00;99.90
3330;DHT22;1677;49.576;10.990;2022-08-25T02:47:37;19.90;99.90
3330;DHT22;1677;49.576;10.990;2022-08-25T02:50:07;19.70;99.90
3330;DHT22;1677;49.576;10.990;2022-08-25T02:52:33;19.60;99.90
3330;DHT22;1677;49.576;10.990;2022-08-25T02:55:00;19.50;99.90
3330;DHT22;1677;49.576;10.990;2022-08-25T02:57:28;19.50;99.90
3330;DHT22;1677;49.576;10.990;2022-08-25T02:59:54;19.50;99.90
3330;DHT22;1677;49.576;10.990;2022-08-25T03:02:19;19.90;99.90
3330;DHT22;1677;49.576;10.990;2022-08-25T03:04:45;20.60;99.90
3330;DHT22;1677;49.576;10.990;2022-08-25T03:07:11;21.50;99.90
3330;DHT22;1677;49.576;10.990;2022-08-25T03:09:38;22.10;99.90
3330;DHT22;1677;49.576;10.990;2022-08-25T03:12:04;22.30;99.90
3330;DHT22;1677;49.576;10.990;2022-08-25T03:14:30;22.20;99.90
3330;DHT22;1677;49.576;10.990;2022-08-25T03:16:55;22.00;99.90
3330;DHT22;1677;49.576;10.990;2022-08-25T03:19:21;21.70;99.90
3330;DHT22;1677;49.576;10.990;2022-08-25T03:21:47;21.30;99.90
3330;DHT22;1677;49.576;10.990;2022-08-25T03:24:13;21.00;99.90
3330;DHT22;1677;49.576;10.990;2022-08-25T03:26:38;20.70;99.90
3330;DHT22;1677;49.576;10.990;2022-08-25T03:29:29;20.40;99.90
3330;DHT22;1677;49.576;10.990;2022-08-25T03:31:56;19.90;99.90
3330;DHT22;1677;49.576;10.990;2022-08-25T03:34:27;19.80;99.90
3330;DHT22;1677;49.576;10.990;2022-08-25T03:36:54;19.70;99.90
3330;DHT22;1677;49.576;10.990;2022-08-25T03:39:22;19.60;99.90
3330;DHT22;1677;49.576;10.990;2022-08-25T03:41:48;19.50;99.90
3330;DHT22;1677;49.576;10.990;2022-08-25T03:44:15;19.40;99.90
3330;DHT22;1677;49.576;10.990;2022-08-25T03:46:49;19.40;99.90
3330;DHT22;1677;49.576;10.990;2022-08-25T03:49:19;19.40;99.90
3330;DHT22;1677;49.576;10.990;2022-08-25T03:51:49;19.30;99.90
3330;DHT22;1677;49.576;10.990;2022-08-25T03:54:18;19.40;99.90
3330;DHT22;1677;49.576;10.990;2022-08-25T03:56:44;19.80;99.90
3330;DHT22;1677;49.576;10.990;2022-08-25T03:59:10;20.50;99.90
3330;DHT22;1677;49.576;10.990;2022-08-25T04:01:37;21.30;99.90
3330;DHT22;1677;49.576;10.990;2022-08-25T04:04:04;21.80;99.90
3330;DHT22;1677;49.576;10.990;2022-08-25T04:06:30;22.00;99.90
3330;DHT22;1677;49.576;10.990;2022-08-25T04:08:56;22.00;99.90
3330;DHT22;1677;49.576;10.990;2022-08-25T04:11:24;21.70;99.90
3330;DHT22;1677;49.576;10.990;2022-08-25T04:13:51;21.40;99.90
3330;DHT22;1677;49.576;10.990;2022-08-25T04:16:22;20.90;99.90
3330;DHT22;1677;49.576;10.990;2022-08-25T04:18:49;20.60;99.90
3330;DHT22;1677;49.576;10.990;2022-08-25T04:21:16;20.30;99.90
3330;DHT22;1677;49.576;10.990;2022-08-25T04:23:44;20.00;99.90
3330;DHT22;1677;49.576;10.990;2022-08-25T04:26:16;19.80;99.90
3330;DHT22;1677;49.576;10.990;2022-08-25T04:28:44;19.70;99.90
3330;DHT22;1677;49.576;10.990;2022-08-25T04:31:11;19.40;99.90
3330;DHT22;1677;49.576;10.990;2022-08-25T04:33:39;19.20;99.90
3330;DHT22;1677;49.576;10.990;2022-08-25T04:36:07;19.10;99.90
3330;DHT22;1677;49.576;10.990;2022-08-25T04:38:37;19.10;99.90
3330;DHT22;1677;49.576;10.990;2022-08-25T04:41:04;19.00;99.90
3330;DHT22;1677;49.576;10.990;2022-08-25T04:43:31;19.00;99.90
3330;DHT22;1677;49.576;10.990;2022-08-25T04:45:57;19.00;99.90
3330;DHT22;1677;49.576;10.990;2022-08-25T04:48:24;19.20;99.90
3330;DHT22;1677;49.576;10.990;2022-08-25T04:50:50;19.90;99.90
3330;DHT22;1677;49.576;10.990;2022-08-25T04:53:16;20.70;99.90
3330;DHT22;1677;49.576;10.990;2022-08-25T04:55:45;21.40;99.90
3330;DHT22;1677;49.576;10.990;2022-08-25T04:58:11;21.70;99.90
3330;DHT22;1677;49.576;10.990;2022-08-25T05:00:38;21.80;99.90
3330;DHT22;1677;49.576;10.990;2022-08-25T05:03:04;21.70;99.90
3330;DHT22;1677;49.576;10.990;2022-08-25T05:05:30;21.40;99.90
3330;DHT22;1677;49.576;10.990;2022-08-25T05:07:57;20.90;99.90
3330;DHT22;1677;49.576;10.990;2022-08-25T05:10:23;20.60;99.90
3330;DHT22;1677;49.576;10.990;2022-08-25T05:12:48;20.30;99.90
3330;DHT22;1677;49.576;10.990;2022-08-25T05:15:14;20.10;99.90
3330;DHT22;1677;49.576;10.990;2022-08-25T05:17:58;19.90;99.90
3330;DHT22;1677;49.576;10.990;2022-08-25T05:20:24;19.70;99.90
3330;DHT22;1677;49.576;10.990;2022-08-25T05:22:50;19.60;99.90
3330;DHT22;1677;49.576;10.990;2022-08-25T05:25:15;19.50;99.90
3330;DHT22;1677;49.576;10.990;2022-08-25T05:27:42;19.40;99.90
3330;DHT22;1677;49.576;10.990;2022-08-25T05:30:10;19.30;99.90
3330;DHT22;1677;49.576;10.990;2022-08-25T05:32:36;19.10;99.90
3330;DHT22;1677;49.576;10.990;2022-08-25T05:35:02;19.10;99.90
3330;DHT22;1677;49.576;10.990;2022-08-25T05:37:28;19.00;99.90
3330;DHT22;1677;49.576;10.990;2022-08-25T05:39:54;19.10;99.90
3330;DHT22;1677;49.576;10.990;2022-08-25T05:42:19;19.30;99.90
3330;DHT22;1677;49.576;10.990;2022-08-25T05:44:45;20.00;99.90
3330;DHT22;1677;49.576;10.990;2022-08-25T05:47:10;20.60;99.90
3330;DHT22;1677;49.576;10.990;2022-08-25T05:49:36;21.00;99.90
3330;DHT22;1677;49.576;10.990;2022-08-25T05:52:01;21.30;99.90
3330;DHT22;1677;49.576;10.990;2022-08-25T05:54:27;21.40;99.90
3330;DHT22;1677;49.576;10.990;2022-08-25T05:56:53;21.40;99.90
3330;DHT22;1677;49.576;10.990;2022-08-25T05:59:18;21.20;99.90
3330;DHT22;1677;49.576;10.990;2022-08-25T06:01:44;20.80;99.90
3330;DHT22;1677;49.576;10.990;2022-08-25T06:04:28;20.30;99.90
3330;DHT22;1677;49.576;10.990;2022-08-25T06:06:53;20.00;99.90
3330;DHT22;1677;49.576;10.990;2022-08-25T06:09:23;19.80;99.90
3330;DHT22;1677;49.576;10.990;2022-08-25T06:11:48;19.60;99.90
3330;DHT22;1677;49.576;10.990;2022-08-25T06:14:15;19.50;99.90
3330;DHT22;1677;49.576;10.990;2022-08-25T06:16:40;19.40;99.90
3330;DHT22;1677;49.576;10.990;2022-08-25T06:19:07;19.40;99.90
3330;DHT22;1677;49.576;10.990;2022-08-25T06:21:34;19.30;99.90
3330;DHT22;1677;49.576;10.990;2022-08-25T06:24:00;19.40;99.90
3330;DHT22;1677;49.576;10.990;2022-08-25T06:26:25;19.40;99.90
3330;DHT22;1677;49.576;10.990;2022-08-25T06:28:51;19.40;99.90
3330;DHT22;1677;49.576;10.990;2022-08-25T06:31:18;19.40;99.90
3330;DHT22;1677;49.576;10.990;2022-08-25T06:33:44;19.40;99.90
3330;DHT22;1677;49.576;10.990;2022-08-25T06:36:10;19.70;99.90
3330;DHT22;1677;49.576;10.990;2022-08-25T06:38:35;20.40;99.90
3330;DHT22;1677;49.576;10.990;2022-08-25T06:41:03;21.00;99.90
3330;DHT22;1677;49.576;10.990;2022-08-25T06:43:29;21.50;99.90
3330;DHT22;1677;49.576;10.990;2022-08-25T06:45:55;21.80;99.90
3330;DHT22;1677;49.576;10.990;2022-08-25T06:48:20;22.00;99.90
3330;DHT22;1677;49.576;10.990;2022-08-25T06:50:48;22.00;99.90
3330;DHT22;1677;49.576;10.990;2022-08-25T06:53:13;21.80;99.90
3330;DHT22;1677;49.576;10.990;2022-08-25T06:55:39;21.60;99.90
3330;DHT22;1677;49.576;10.990;2022-08-25T06:58:05;21.30;99.90
3330;DHT22;1677;49.576;10.990;2022-08-25T07:00:32;21.10;99.90
3330;DHT22;1677;49.576;10.990;2022-08-25T07:02:57;21.00;99.90
3330;DHT22;1677;49.576;10.990;2022-08-25T07:05:26;20.90;99.90
3330;DHT22;1677;49.576;10.990;2022-08-25T07:07:51;20.80;99.90
3330;DHT22;1677;49.576;10.990;2022-08-25T07:10:17;20.70;99.90
3330;DHT22;1677;49.576;10.990;2022-08-25T07:12:43;20.60;99.90
3330;DHT22;1677;49.576;10.990;2022-08-25T07:15:09;20.60;99.90
3330;DHT22;1677;49.576;10.990;2022-08-25T07:17:35;20.70;99.90
3330;DHT22;1677;49.576;10.990;2022-08-25T07:20:00;20.70;99.90
3330;DHT22;1677;49.576;10.990;2022-08-25T07:22:26;20.70;99.90
3330;DHT22;1677;49.576;10.990;2022-08-25T07:24:51;20.70;99.90
3330;DHT22;1677;49.576;10.990;2022-08-25T07:27:17;20.90;99.90
3330;DHT22;1677;49.576;10.990;2022-08-25T07:29:43;21.80;99.90
3330;DHT22;1677;49.576;10.990;2022-08-25T07:32:09;22.70;99.90
3330;DHT22;1677;49.576;10.990;2022-08-25T07:34:34;23.30;99.90
3330;DHT22;1677;49.576;10.990;2022-08-25T07:37:20;23.70;99.90
3330;DHT22;1677;49.576;10.990;2022-08-25T07:39:47;23.80;99.90
3330;DHT22;1677;49.576;10.990;2022-08-25T07:42:12;23.80;99.90
3330;DHT22;1677;49.576;10.990;2022-08-25T07:44:38;23.70;99.90
3330;DHT22;1677;49.576;10.990;2022-08-25T07:47:04;23.70;99.90
3330;DHT22;1677;49.576;10.990;2022-08-25T07:49:30;23.40;99.90
3330;DHT22;1677;49.576;10.990;2022-08-25T07:51:55;23.10;99.90
3330;DHT22;1677;49.576;10.990;2022-08-25T07:54:21;23.00;99.90
3330;DHT22;1677;49.576;10.990;2022-08-25T07:56:47;22.80;99.90
3330;DHT22;1677;49.576;10.990;2022-08-25T07:59:12;22.90;99.90
3330;DHT22;1677;49.576;10.990;2022-08-25T08:01:38;22.70;99.90
3330;DHT22;1677;49.576;10.990;2022-08-25T08:04:04;22.60;99.90
3330;DHT22;1677;49.576;10.990;2022-08-25T08:06:30;22.50;99.90
3330;DHT22;1677;49.576;10.990;2022-08-25T08:08:56;22.60;99.90
3330;DHT22;1677;49.576;10.990;2022-08-25T08:11:30;22.60;99.90
3330;DHT22;1677;49.576;10.990;2022-08-25T08:13:58;22.60;99.90
3330;DHT22;1677;49.576;10.990;2022-08-25T08:16:26;22.50;99.90
3330;DHT22;1677;49.576;10.990;2022-08-25T08:18:52;22.60;99.90
3330;DHT22;1677;49.576;10.990;2022-08-25T08:21:33;23.10;99.90
3330;DHT22;1677;49.576;10.990;2022-08-25T08:23:59;23.80;99.90
3330;DHT22;1677;49.576;10.990;2022-08-25T08:26:25;24.50;99.90
3330;DHT22;1677;49.576;10.990;2022-08-25T08:28:52;24.80;99.90
3330;DHT22;1677;49.576;10.990;2022-08-25T08:31:23;24.90;99.90
3330;DHT22;1677;49.576;10.990;2022-08-25T08:33:51;25.10;99.90
3330;DHT22;1677;49.576;10.990;2022-08-25T08:36:18;25.20;99.90
3330;DHT22;1677;49.576;10.990;2022-08-25T08:38:44;25.20;99.90
3330;DHT22;1677;49.576;10.990;2022-08-25T08:50:21;24.50;99.90
3330;DHT22;1677;49.576;10.990;2022-08-25T08:52:53;24.40;99.90
3330;DHT22;1677;49.576;10.990;2022-08-25T08:55:44;24.30;99.90
3330;DHT22;1677;49.576;10.990;2022-08-25T09:00:47;24.10;99.90
3330;DHT22;1677;49.576;10.990;2022-08-25T09:03:37;24.00;99.90
3330;DHT22;1677;49.576;10.990;2022-08-25T09:06:19;23.90;99.90
3330;DHT22;1677;49.576;10.990;2022-08-25T09:08:45;23.90;99.90
3330;DHT22;1677;49.576;10.990;2022-08-25T09:14:37;24.10;99.90
3330;DHT22;1677;49.576;10.990;2022-08-25T09:17:17;24.80;99.90
3330;DHT22;1677;49.576;10.990;2022-08-25T09:28:17;26.20;99.90
3330;DHT22;1677;49.576;10.990;2022-08-25T09:31:07;26.30;99.90
3330;DHT22;1677;49.576;10.990;2022-08-25T09:33:33;26.50;99.90
3330;DHT22;1677;49.576;10.990;2022-08-25T09:35:59;26.60;99.90
3330;DHT22;1677;49.576;10.990;2022-08-25T09:38:26;26.70;99.90
3330;DHT22;1677;49.576;10.990;2022-08-25T09:40:55;26.60;99.90
3330;DHT22;1677;49.576;10.990;2022-08-25T09:51:01;25.90;99.90
3330;DHT22;1677;49.576;10.990;2022-08-25T09:53:33;25.70;99.90
3330;DHT22;1677;49.576;10.990;2022-08-25T09:56:02;25.60;99.90
3330;DHT22;1677;49.576;10.990;2022-08-25T09:58:30;25.50;99.90
3330;DHT22;1677;49.576;10.990;2022-08-25T10:04:02;25.30;99.90
3330;DHT22;1677;49.576;10.990;2022-08-25T10:06:33;25.30;99.90
3330;DHT22;1677;49.576;10.990;2022-08-25T10:09:04;25.10;99.90
3330;DHT22;1677;49.576;10.990;2022-08-25T10:14:25;25.20;99.90
3330;DHT22;1677;49.576;10.990;2022-08-25T10:17:18;25.90;99.90
3330;DHT22;1677;49.576;10.990;2022-08-25T10:19:55;26.60;99.90
3330;DHT22;1677;49.576;10.990;2022-08-25T10:22:38;27.00;99.20
3330;DHT22;1677;49.576;10.990;2022-08-25T10:25:06;27.40;98.60
3330;DHT22;1677;49.576;10.990;2022-08-25T10:36:21;28.10;95.10
3330;DHT22;1677;49.576;10.990;2022-08-25T10:38:57;28.40;95.10
3330;DHT22;1677;49.576;10.990;2022-08-25T10:41:29;28.40;95.40
3330;DHT22;1677;49.576;10.990;2022-08-25T10:44:30;28.30;94.80
3330;DHT22;1677;49.576;10.990;2022-08-25T10:53:24;28.90;93.40
3330;DHT22;1677;49.576;10.990;2022-08-25T10:56:19;29.10;92.60
3330;DHT22;1677;49.576;10.990;2022-08-25T10:59:19;28.90;92.70
3330;DHT22;1677;49.576;10.990;2022-08-25T11:02:23;28.90;92.60
3330;DHT22;1677;49.576;10.990;2022-08-25T11:05:02;29.10;92.30
3330;DHT22;1677;49.576;10.990;2022-08-25T11:07:36;29.30;91.10
3330;DHT22;1677;49.576;10.990;2022-08-25T11:10:09;29.30;91.50
3330;DHT22;1677;49.576;10.990;2022-08-25T11:12:42;29.40;91.20
3330;DHT22;1677;49.576;10.990;2022-08-25T11:15:25;29.40;91.40
3330;DHT22;1677;49.576;10.990;2022-08-25T11:17:59;29.90;90.40
3330;DHT22;1677;49.576;10.990;2022-08-25T11:23:40;29.70;90.60
3330;DHT22;1677;49.576;10.990;2022-08-25T11:26:10;29.70;90.00
3330;DHT22;1677;49.576;10.990;2022-08-25T11:31:08;29.70;88.70
3330;DHT22;1677;49.576;10.990;2022-08-25T11:33:35;29.70;87.20
3330;DHT22;1677;49.576;10.990;2022-08-25T11:44:23;29.90;85.60
3330;DHT22;1677;49.576;10.990;2022-08-25T11:50:33;29.80;86.10
3330;DHT22;1677;49.576;10.990;2022-08-25T11:52:45;29.70;85.50
3330;DHT22;1677;49.576;10.990;2022-08-25T11:58:21;30.00;84.50
3330;DHT22;1677;49.576;10.990;2022-08-25T12:00:42;29.80;83.90
3330;DHT22;1677;49.576;10.990;2022-08-25T12:09:15;29.70;81.10
3330;DHT22;1677;49.576;10.990;2022-08-25T12:11:43;29.70;82.50
3330;DHT22;1677;49.576;10.990;2022-08-25T12:19:29;30.00;81.50
3330;DHT22;1677;49.576;10.990;2022-08-25T12:27:31;29.70;81.30
3330;DHT22;1677;49.576;10.990;2022-08-25T12:36:00;29.80;80.10
3330;DHT22;1677;49.576;10.990;2022-08-25T12:38:33;29.60;80.50
3330;DHT22;1677;49.576;10.990;2022-08-25T12:41:10;29.60;80.70
3330;DHT22;1677;49.576;10.990;2022-08-25T12:43:39;29.80;79.70
3330;DHT22;1677;49.576;10.990;2022-08-25T12:51:50;29.90;79.50
3330;DHT22;1677;49.576;10.990;2022-08-25T12:57:41;30.70;76.30
3330;DHT22;1677;49.576;10.990;2022-08-25T13:00:27;31.10;74.80
3330;DHT22;1677;49.576;10.990;2022-08-25T13:11:52;31.60;73.20
3330;DHT22;1677;49.576;10.990;2022-08-25T13:14:37;31.90;71.30
3330;DHT22;1677;49.576;10.990;2022-08-25T13:17:03;31.80;71.70
3330;DHT22;1677;49.576;10.990;2022-08-25T13:19:29;31.80;71.10
3330;DHT22;1677;49.576;10.990;2022-08-25T13:21:57;31.90;70.20
3330;DHT22;1677;49.576;10.990;2022-08-25T13:24:27;31.90;69.00
3330;DHT22;1677;49.576;10.990;2022-08-25T13:27:05;32.10;68.50
3330;DHT22;1677;49.576;10.990;2022-08-25T13:29:35;32.00;68.40
3330;DHT22;1677;49.576;10.990;2022-08-25T13:32:04;32.00;68.80
3330;DHT22;1677;49.576;10.990;2022-08-25T13:34:35;31.90;68.70
3330;DHT22;1677;49.576;10.990;2022-08-25T13:37:06;32.10;68.30
3330;DHT22;1677;49.576;10.990;2022-08-25T13:40:47;32.20;68.10
3330;DHT22;1677;49.576;10.990;2022-08-25T13:42:58;32.30;65.30
3330;DHT22;1677;49.576;10.990;2022-08-25T13:45:26;32.30;67.40
3330;DHT22;1677;49.576;10.990;2022-08-25T13:47:53;32.30;66.20
3330;DHT22;1677;49.576;10.990;2022-08-25T13:53:00;32.10;65.70
3330;DHT22;1677;49.576;10.990;2022-08-25T13:57:59;32.30;65.30
3330;DHT22;1677;49.576;10.990;2022-08-25T14:00:46;32.40;63.00
3330;DHT22;1677;49.576;10.990;2022-08-25T14:03:37;32.30;64.60
3330;DHT22;1677;49.576;10.990;2022-08-25T14:06:23;32.30;64.40
3330;DHT22;1677;49.576;10.990;2022-08-25T14:09:13;32.60;64.40
3330;DHT22;1677;49.576;10.990;2022-08-25T14:14:30;32.80;62.10
3330;DHT22;1677;49.576;10.990;2022-08-25T14:17:04;32.80;59.90
3330;DHT22;1677;49.576;10.990;2022-08-25T14:19:31;32.80;60.10
3330;DHT22;1677;49.576;10.990;2022-08-25T14:21:58;32.70;59.60
3330;DHT22;1677;49.576;10.990;2022-08-25T14:24:30;32.70;58.40
3330;DHT22;1677;49.576;10.990;2022-08-25T14:26:57;32.40;57.90
3330;DHT22;1677;49.576;10.990;2022-08-25T14:29:23;32.30;58.10
3330;DHT22;1677;49.576;10.990;2022-08-25T14:31:49;32.10;59.20
3330;DHT22;1677;49.576;10.990;2022-08-25T14:34:26;32.10;60.00
3330;DHT22;1677;49.576;10.990;2022-08-25T14:36:53;31.70;61.50
3330;DHT22;1677;49.576;10.990;2022-08-25T14:39:19;31.80;61.80
3330;DHT22;1677;49.576;10.990;2022-08-25T14:41:45;32.10;60.60
3330;DHT22;1677;49.576;10.990;2022-08-25T14:44:12;32.10;60.00
3330;DHT22;1677;49.576;10.990;2022-08-25T14:46:44;32.20;58.80
3330;DHT22;1677;49.576;10.990;2022-08-25T14:49:18;32.30;58.90
3330;DHT22;1677;49.576;10.990;2022-08-25T14:51:45;32.00;59.40
3330;DHT22;1677;49.576;10.990;2022-08-25T14:54:12;32.10;58.30
3330;DHT22;1677;49.576;10.990;2022-08-25T14:56:39;32.30;58.70
3330;DHT22;1677;49.576;10.990;2022-08-25T14:59:05;32.20;57.80
3330;DHT22;1677;49.576;10.990;2022-08-25T15:01:31;32.40;57.60
3330;DHT22;1677;49.576;10.990;2022-08-25T15:04:03;32.10;57.40
3330;DHT22;1677;49.576;10.990;2022-08-25T15:06:29;32.00;58.10
3330;DHT22;1677;49.576;10.990;2022-08-25T15:08:55;32.10;58.50
3330;DHT22;1677;49.576;10.990;2022-08-25T15:11:35;32.40;57.20
3330;DHT22;1677;49.576;10.990;2022-08-25T15:14:01;32.50;57.90
3330;DHT22;1677;49.576;10.990;2022-08-25T15:16:33;32.50;56.60
3330;DHT22;1677;49.576;10.990;2022-08-25T15:19:02;32.60;56.20
3330;DHT22;1677;49.576;10.990;2022-08-25T15:21:29;32.60;56.00
3330;DHT22;1677;49.576;10.990;2022-08-25T15:23:55;32.60;56.20
3330;DHT22;1677;49.576;10.990;2022-08-25T15:26:22;32.60;55.90
3330;DHT22;1677;49.576;10.990;2022-08-25T15:28:49;32.70;55.90
3330;DHT22;1677;49.576;10.990;2022-08-25T15:31:17;32.70;55.30
3330;DHT22;1677;49.576;10.990;2022-08-25T15:33:44;32.60;55.10
3330;DHT22;1677;49.576;10.990;2022-08-25T15:36:13;32.60;54.80
3330;DHT22;1677;49.576;10.990;2022-08-25T15:38:40;32.60;55.20
3330;DHT22;1677;49.576;10.990;2022-08-25T15:41:07;32.60;54.90
3330;DHT22;1677;49.576;10.990;2022-08-25T15:43:33;32.70;55.10
3330;DHT22;1677;49.576;10.990;2022-08-25T15:45:58;32.90;55.90
3330;DHT22;1677;49.576;10.990;2022-08-25T15:48:24;32.90;56.30
3330;DHT22;1677;49.576;10.990;2022-08-25T15:50:53;33.20;55.40
3330;DHT22;1677;49.576;10.990;2022-08-25T15:53:20;33.10;55.30
3330;DHT22;1677;49.576;10.990;2022-08-25T15:55:47;33.00;55.20
3330;DHT22;1677;49.576;10.990;2022-08-25T15:58:14;33.00;55.60
3330;DHT22;1677;49.576;10.990;2022-08-25T16:00:39;32.60;56.20
3330;DHT22;1677;49.576;10.990;2022-08-25T16:03:06;32.10;56.60
3330;DHT22;1677;49.576;10.990;2022-08-25T16:05:37;31.50;57.90
3330;DHT22;1677;49.576;10.990;2022-08-25T16:08:03;31.00;59.40
3330;DHT22;1677;49.576;10.990;2022-08-25T16:10:35;30.70;61.00
3330;DHT22;1677;49.576;10.990;2022-08-25T16:13:02;30.30;62.00
3330;DHT22;1677;49.576;10.990;2022-08-25T16:15:28;30.00;63.40
3330;DHT22;1677;49.576;10.990;2022-08-25T16:17:54;29.80;64.10
3330;DHT22;1677;49.576;10.990;2022-08-25T16:20:20;29.70;65.10
3330;DHT22;1677;49.576;10.990;2022-08-25T16:22:47;29.60;65.70
3330;DHT22;1677;49.576;10.990;2022-08-25T16:25:13;29.50;66.90
3330;DHT22;1677;49.576;10.990;2022-08-25T16:27:39;29.40;66.30
3330;DHT22;1677;49.576;10.990;2022-08-25T16:30:09;29.50;66.80
3330;DHT22;1677;49.576;10.990;2022-08-25T16:32:35;30.30;64.80
3330;DHT22;1677;49.576;10.990;2022-08-25T16:35:00;31.00;62.60
3330;DHT22;1677;49.576;10.990;2022-08-25T16:37:26;31.80;59.40
3330;DHT22;1677;49.576;10.990;2022-08-25T16:39:53;32.10;57.90
3330;DHT22;1677;49.576;10.990;2022-08-25T16:42:19;32.30;57.40
3330;DHT22;1677;49.576;10.990;2022-08-25T16:44:45;32.30;57.10
3330;DHT22;1677;49.576;10.990;2022-08-25T16:47:11;32.30;56.90
3330;DHT22;1677;49.576;10.990;2022-08-25T16:49:39;32.30;56.10
3330;DHT22;1677;49.576;10.990;2022-08-25T16:52:04;32.40;56.20
3330;DHT22;1677;49.576;10.990;2022-08-25T16:54:50;32.40;56.10
3330;DHT22;1677;49.576;10.990;2022-08-25T16:57:34;32.20;55.60
3330;DHT22;1677;49.576;10.990;2022-08-25T16:59:59;32.30;55.20
3330;DHT22;1677;49.576;10.990;2022-08-25T17:02:25;32.20;54.40
3330;DHT22;1677;49.576;10.990;2022-08-25T17:04:51;32.30;53.80
3330;DHT22;1677;49.576;10.990;2022-08-25T17:07:16;32.40;53.70
3330;DHT22;1677;49.576;10.990;2022-08-25T17:09:42;32.20;53.40
3330;DHT22;1677;49.576;10.990;2022-08-25T17:12:07;32.10;53.30
3330;DHT22;1677;49.576;10.990;2022-08-25T17:14:35;32.10;53.50
3330;DHT22;1677;49.576;10.990;2022-08-25T17:17:01;32.10;53.10
3330;DHT22;1677;49.576;10.990;2022-08-25T17:19:27;32.30;52.80
3330;DHT22;1677;49.576;10.990;2022-08-25T17:21:53;32.20;52.90
3330;DHT22;1677;49.576;10.990;2022-08-25T17:24:19;32.20;52.80
3330;DHT22;1677;49.576;10.990;2022-08-25T17:26:46;32.20;53.00
3330;DHT22;1677;49.576;10.990;2022-08-25T17:29:14;32.00;53.30
3330;DHT22;1677;49.576;10.990;2022-08-25T17:31:41;31.90;53.00
3330;DHT22;1677;49.576;10.990;2022-08-25T17:34:09;31.90;53.20
3330;DHT22;1677;49.576;10.990;2022-08-25T17:36:37;31.90;52.90
3330;DHT22;1677;49.576;10.990;2022-08-25T17:39:04;32.00;53.30
3330;DHT22;1677;49.576;10.990;2022-08-25T17:41:29;31.90;53.10
3330;DHT22;1677;49.576;10.990;2022-08-25T17:43:55;32.00;53.70
3330;DHT22;1677;49.576;10.990;2022-08-25T17:46:21;32.00;53.70
3330;DHT22;1677;49.576;10.990;2022-08-25T17:48:46;31.90;53.90
3330;DHT22;1677;49.576;10.990;2022-08-25T17:51:12;31.90;53.80
3330;DHT22;1677;49.576;10.990;2022-08-25T17:53:38;31.90;54.10
3330;DHT22;1677;49.576;10.990;2022-08-25T17:56:07;32.00;54.90
3330;DHT22;1677;49.576;10.990;2022-08-25T17:58:34;31.90;54.10
3330;DHT22;1677;49.576;10.990;2022-08-25T18:01:00;31.90;54.60